createdAt,value
2022-09-15T02:45:05.546Z,983.74
2022-09-15T02:46:05.718Z,983.77
2022-09-15T02:47:05.518Z,983.67
2022-09-15T02:48:05.632Z,983.72
2022-09-15T02:49:05.740Z,983.71
2022-09-15T02:50:05.566Z,983.75
2022-09-15T02:51:05.486Z,983.70
2022-09-15T02:52:05.605Z,983.68
2022-09-15T02:53:05.537Z,983.72
2022-09-15T02:54:05.545Z,983.74
2022-09-15T02:55:06.895Z,983.71
2022-09-15T02:56:06.645Z,983.71
2022-09-15T02:57:06.858Z,983.69
2022-09-15T02:58:06.969Z,983.69
2022-09-15T02:59:07.008Z,983.70
2022-09-15T03:00:07.131Z,983.72
2022-09-15T03:01:06.910Z,983.70
2022-09-15T03:02:06.708Z,983.65
2022-09-15T03:03:06.661Z,983.69
2022-09-15T03:04:06.613Z,983.74
2022-09-15T03:05:08.072Z,983.68
2022-09-15T03:06:06.622Z,983.67
2022-09-15T03:07:07.123Z,983.64
2022-09-15T03:08:06.601Z,983.72
2022-09-15T03:09:07.682Z,983.66
2022-09-15T03:10:06.636Z,983.67
2022-09-15T03:11:07.086Z,983.70
2022-09-15T03:12:07.581Z,983.74
2022-09-15T03:13:06.551Z,983.79
2022-09-15T03:14:06.996Z,983.77
2022-09-15T03:15:06.675Z,983.82
2022-09-15T03:16:06.643Z,983.81
2022-09-15T03:17:06.492Z,983.78
2022-09-15T03:18:06.569Z,983.77
2022-09-15T03:19:06.708Z,983.81
2022-09-15T03:20:07.425Z,983.79
2022-09-15T03:21:06.466Z,983.82
2022-09-15T03:22:06.474Z,983.88
2022-09-15T03:23:06.562Z,983.88
2022-09-15T03:24:06.375Z,983.86
2022-09-15T03:25:06.430Z,983.84
2022-09-15T03:26:06.552Z,983.76
2022-09-15T03:27:06.367Z,983.82
2022-09-15T03:28:06.336Z,983.86
2022-09-15T03:29:06.419Z,983.84
2022-09-15T03:30:06.360Z,983.84
2022-09-15T03:31:06.447Z,983.85
2022-09-15T03:32:06.347Z,983.88
2022-09-15T03:33:07.392Z,983.85
2022-09-15T03:34:06.306Z,983.88
2022-09-15T03:35:06.284Z,983.83
2022-09-15T03:36:06.438Z,983.87
2022-09-15T03:37:07.123Z,983.89
2022-09-15T03:38:06.539Z,983.87
2022-09-15T03:39:06.319Z,983.88
2022-09-15T03:40:07.021Z,983.86
2022-09-15T03:41:06.326Z,983.85
2022-09-15T03:42:06.367Z,983.86
2022-09-15T03:43:06.902Z,983.90
2022-09-15T03:44:06.885Z,983.87
2022-09-15T03:45:06.253Z,983.90
2022-09-15T03:46:07.598Z,983.88
2022-09-15T03:47:06.182Z,983.85
2022-09-15T03:48:06.668Z,983.92
2022-09-15T03:49:06.284Z,983.88
2022-09-15T03:50:06.602Z,983.88
2022-09-15T03:51:06.559Z,983.80
2022-09-15T03:52:06.932Z,983.84
2022-09-15T03:53:06.279Z,983.80
2022-09-15T03:54:06.093Z,983.82
2022-09-15T03:55:06.076Z,983.82
2022-09-15T03:56:06.856Z,983.85
2022-09-15T03:57:06.052Z,983.76
2022-09-15T03:58:06.278Z,983.79
2022-09-15T03:59:06.105Z,983.81
2022-09-15T04:00:06.009Z,983.78
2022-09-15T04:01:06.070Z,983.82
2022-09-15T04:02:05.981Z,983.84
2022-09-15T04:03:06.065Z,983.88
2022-09-15T04:04:05.958Z,983.92
2022-09-15T04:05:06.247Z,983.86
2022-09-15T04:06:05.967Z,983.85
2022-09-15T04:07:06.007Z,983.83
2022-09-15T04:08:05.959Z,983.93
2022-09-15T04:09:05.934Z,983.88
2022-09-15T04:10:05.870Z,983.93
2022-09-15T04:11:05.901Z,983.90
2022-09-15T04:12:05.986Z,983.96
2022-09-15T04:13:05.868Z,983.92
2022-09-15T04:14:05.929Z,983.98
2022-09-15T04:15:05.860Z,983.96
2022-09-15T04:16:06.060Z,983.94
2022-09-15T04:17:06.754Z,984.02
2022-09-15T04:18:05.857Z,984.03
2022-09-15T04:19:05.942Z,984.00
2022-09-15T04:20:05.786Z,984.00
2022-09-15T04:21:05.803Z,984.03
2022-09-15T04:22:05.798Z,983.99
2022-09-15T04:23:05.793Z,984.02
2022-09-15T04:24:05.851Z,984.04
2022-09-15T04:25:05.775Z,983.99
2022-09-15T04:26:05.755Z,984.10
2022-09-15T04:27:05.852Z,984.09
2022-09-15T04:28:05.863Z,984.02
2022-09-15T04:29:05.793Z,984.04
2022-09-15T04:30:05.755Z,984.05
2022-09-15T04:31:05.795Z,984.06
2022-09-15T04:32:05.738Z,983.98
2022-09-15T04:33:05.715Z,984.03
2022-09-15T04:34:05.751Z,984.02
2022-09-15T04:35:06.287Z,984.01
2022-09-15T04:36:05.616Z,984.00
2022-09-15T04:37:05.770Z,984.07
2022-09-15T04:38:05.712Z,984.06
2022-09-15T04:39:05.726Z,984.07
2022-09-15T04:40:05.667Z,984.10
2022-09-15T04:41:05.683Z,984.11
2022-09-15T04:42:05.948Z,984.11
2022-09-15T04:43:05.812Z,984.14
2022-09-15T04:44:05.648Z,984.11
2022-09-15T04:45:05.630Z,984.18
2022-09-15T04:46:05.593Z,984.08
2022-09-15T04:47:05.689Z,984.15
2022-09-15T04:48:05.570Z,984.09
2022-09-15T04:49:06.385Z,984.12
2022-09-15T04:50:05.609Z,984.12
2022-09-15T04:51:05.579Z,984.16
2022-09-15T04:52:09.484Z,984.15
2022-09-15T04:53:06.653Z,984.18
2022-09-15T04:54:05.488Z,984.21
2022-09-15T04:55:05.431Z,984.17
2022-09-15T04:56:05.525Z,984.22
2022-09-15T04:57:05.372Z,984.23
2022-09-15T04:58:05.772Z,984.17
2022-09-15T04:59:05.577Z,984.18
2022-09-15T05:00:05.518Z,984.21
2022-09-15T05:01:05.575Z,984.17
2022-09-15T05:02:05.856Z,984.12
2022-09-15T05:03:08.620Z,984.21
2022-09-15T05:04:06.696Z,984.27
2022-09-15T05:05:05.580Z,984.28
2022-09-15T05:06:05.448Z,984.31
2022-09-15T05:07:05.435Z,984.24
2022-09-15T05:08:05.510Z,984.30
2022-09-15T05:09:09.748Z,984.29
2022-09-15T05:10:07.716Z,984.32
2022-09-15T05:11:05.706Z,984.28
2022-09-15T05:12:05.420Z,984.34
2022-09-15T05:13:05.262Z,984.30
2022-09-15T05:14:05.310Z,984.33
2022-09-15T05:15:05.565Z,984.32
2022-09-15T05:16:05.614Z,984.41
2022-09-15T05:17:05.596Z,984.36
2022-09-15T05:18:06.923Z,984.37
2022-09-15T05:19:06.639Z,984.38
2022-09-15T05:20:05.765Z,984.44
2022-09-15T05:21:06.128Z,984.45
2022-09-15T05:22:06.006Z,984.39
2022-09-15T05:23:05.340Z,984.42
2022-09-15T05:24:05.113Z,984.38
2022-09-15T05:25:05.735Z,984.42
2022-09-15T05:26:06.450Z,984.39
2022-09-15T05:27:05.651Z,984.33
2022-09-15T05:28:05.752Z,984.36
2022-09-15T05:29:05.306Z,984.38
2022-09-15T05:30:34.837Z,984.41
2022-09-15T05:31:07.196Z,984.37
2022-09-15T05:32:05.254Z,984.29
2022-09-15T05:33:05.214Z,984.39
2022-09-15T05:34:05.340Z,984.40
2022-09-15T05:35:05.354Z,984.46
2022-09-15T05:36:05.385Z,984.39
2022-09-15T05:37:05.135Z,984.41
2022-09-15T05:38:05.130Z,984.36
2022-09-15T05:39:05.170Z,984.36
2022-09-15T05:40:08.463Z,984.37
2022-09-15T05:41:06.202Z,984.43
2022-09-15T05:42:05.417Z,984.40
2022-09-15T05:43:05.117Z,984.47
2022-09-15T05:44:05.366Z,984.40
2022-09-15T05:45:05.098Z,984.56
2022-09-15T05:46:05.277Z,984.47
2022-09-15T05:47:05.277Z,984.48
2022-09-15T05:48:05.123Z,984.46
2022-09-15T05:49:05.162Z,984.44
2022-09-15T05:50:05.225Z,984.44
2022-09-15T05:51:05.174Z,984.45
2022-09-15T05:52:05.067Z,984.44
2022-09-15T05:53:05.303Z,984.44
2022-09-15T05:54:06.121Z,984.49
2022-09-15T05:55:05.101Z,984.52
2022-09-15T05:56:06.298Z,984.52
2022-09-15T05:57:05.127Z,984.52
2022-09-15T05:58:05.649Z,984.50
2022-09-15T05:59:05.319Z,984.50
2022-09-15T06:00:05.080Z,984.48
2022-09-15T06:01:05.301Z,984.49
2022-09-15T06:02:05.701Z,984.50
2022-09-15T06:03:06.910Z,984.51
2022-09-15T06:04:04.899Z,984.56
2022-09-15T06:05:09.950Z,984.47
2022-09-15T06:06:07.239Z,984.55
2022-09-15T06:07:05.737Z,984.55
2022-09-15T06:08:05.111Z,984.50
2022-09-15T06:09:05.350Z,984.53
2022-09-15T06:10:05.226Z,984.50
2022-09-15T06:11:05.458Z,984.58
2022-09-15T06:12:05.177Z,984.58
2022-09-15T06:13:04.749Z,984.57
2022-09-15T06:14:05.618Z,984.50
2022-09-15T06:15:04.698Z,984.52
2022-09-15T06:16:04.904Z,984.55
2022-09-15T06:17:05.082Z,984.59
2022-09-15T06:18:04.858Z,984.55
2022-09-15T06:19:04.649Z,984.61
2022-09-15T06:20:04.908Z,984.55
2022-09-15T06:21:04.758Z,984.64
2022-09-15T06:22:05.628Z,984.60
2022-09-15T06:23:04.717Z,984.58
2022-09-15T06:24:05.026Z,984.57
2022-09-15T06:25:04.744Z,984.57
2022-09-15T06:26:04.613Z,984.55
2022-09-15T06:27:04.832Z,984.59
2022-09-15T06:28:04.583Z,984.57
2022-09-15T06:29:04.539Z,984.58
2022-09-15T06:30:04.716Z,984.67
2022-09-15T06:31:04.946Z,984.59
2022-09-15T06:32:04.896Z,984.61
2022-09-15T06:33:04.614Z,984.51
2022-09-15T06:34:04.501Z,984.58
2022-09-15T06:35:04.645Z,984.55
2022-09-15T06:36:04.851Z,984.59
2022-09-15T06:37:04.649Z,984.62
2022-09-15T06:38:04.589Z,984.62
2022-09-15T06:39:04.966Z,984.61
2022-09-15T06:40:04.582Z,984.66
2022-09-15T06:41:04.520Z,984.63
2022-09-15T06:42:05.772Z,984.64
2022-09-15T06:43:05.545Z,984.64
2022-09-15T06:44:04.829Z,984.61
2022-09-15T06:45:04.677Z,984.57
2022-09-15T06:46:04.357Z,984.60
2022-09-15T06:47:04.552Z,984.61
2022-09-15T06:48:23.337Z,984.61
2022-09-15T06:49:06.417Z,984.61
2022-09-15T06:50:04.795Z,984.54
2022-09-15T06:51:04.275Z,984.55
2022-09-15T06:52:04.260Z,984.58
2022-09-15T06:53:04.346Z,984.56
2022-09-15T06:54:04.423Z,984.56
2022-09-15T06:55:04.299Z,984.59
2022-09-15T06:56:04.250Z,984.56
2022-09-15T06:57:04.328Z,984.59
2022-09-15T06:58:04.247Z,984.65
2022-09-15T06:59:04.323Z,984.65
2022-09-15T07:00:04.207Z,984.54
2022-09-15T07:01:04.328Z,984.56
2022-09-15T07:02:05.299Z,984.55
2022-09-15T07:03:05.527Z,984.55
2022-09-15T07:04:04.357Z,984.61
2022-09-15T07:05:04.210Z,984.59
2022-09-15T07:06:05.541Z,984.62
2022-09-15T07:07:04.259Z,984.64
2022-09-15T07:08:04.245Z,984.56
2022-09-15T07:09:04.174Z,984.62
2022-09-15T07:10:04.229Z,984.59
2022-09-15T07:11:03.987Z,984.61
2022-09-15T07:12:04.288Z,984.71
2022-09-15T07:13:04.473Z,984.67
2022-09-15T07:14:04.143Z,984.64
2022-09-15T07:15:05.213Z,984.64
2022-09-15T07:16:04.034Z,984.67
2022-09-15T07:17:04.257Z,984.65
2022-09-15T07:18:04.158Z,984.69
2022-09-15T07:19:04.067Z,984.64
2022-09-15T07:20:04.420Z,984.68
2022-09-15T07:21:04.179Z,984.69
2022-09-15T07:22:04.104Z,984.67
2022-09-15T07:23:03.960Z,984.68
2022-09-15T07:24:07.360Z,984.69
2022-09-15T07:25:05.057Z,984.70
2022-09-15T07:26:04.345Z,984.71
2022-09-15T07:27:04.382Z,984.66
2022-09-15T07:28:04.047Z,984.62
2022-09-15T07:29:04.183Z,984.67
2022-09-15T07:30:04.226Z,984.67
2022-09-15T07:31:04.095Z,984.72
2022-09-15T07:32:04.218Z,984.72
2022-09-15T07:33:03.900Z,984.77
2022-09-15T07:34:05.096Z,984.79
2022-09-15T07:35:03.943Z,984.81
2022-09-15T07:36:04.107Z,984.82
2022-09-15T07:37:04.277Z,984.86
2022-09-15T07:38:04.679Z,984.84
2022-09-15T07:39:03.976Z,984.86
2022-09-15T07:40:03.878Z,984.86
2022-09-15T07:41:04.059Z,984.87
2022-09-15T07:42:03.952Z,984.87
2022-09-15T07:43:04.020Z,984.81
2022-09-15T07:44:03.970Z,984.82
2022-09-15T07:45:04.082Z,984.91
2022-09-15T07:46:04.211Z,984.86
2022-09-15T07:47:03.810Z,984.88
2022-09-15T07:48:03.830Z,984.96
2022-09-15T07:49:03.837Z,984.92
2022-09-15T07:50:03.758Z,984.89
2022-09-15T07:51:03.820Z,984.91
2022-09-15T07:52:03.730Z,984.98
2022-09-15T07:53:03.968Z,984.93
2022-09-15T07:54:03.815Z,984.94
2022-09-15T07:55:03.896Z,985.02
2022-09-15T07:56:03.759Z,984.99
2022-09-15T07:57:04.541Z,984.99
2022-09-15T07:58:03.582Z,984.99
2022-09-15T07:59:03.545Z,985.00
2022-09-15T08:00:03.611Z,985.07
2022-09-15T08:01:03.670Z,985.00
2022-09-15T08:02:03.819Z,985.02
2022-09-15T08:03:03.625Z,984.95
2022-09-15T08:04:04.470Z,985.07
2022-09-15T08:05:03.816Z,985.06
2022-09-15T08:06:03.662Z,985.09
2022-09-15T08:07:03.679Z,985.01
2022-09-15T08:08:03.447Z,985.02
2022-09-15T08:09:03.876Z,984.99
2022-09-15T08:10:03.516Z,985.07
2022-09-15T08:11:03.586Z,985.08
2022-09-15T08:12:03.513Z,985.06
2022-09-15T08:13:04.124Z,984.99
2022-09-15T08:14:03.392Z,985.02
2022-09-15T08:15:03.754Z,985.05
2022-09-15T08:16:03.372Z,985.04
2022-09-15T08:17:11.239Z,985.02
2022-09-15T08:18:04.376Z,985.06
2022-09-15T08:19:03.467Z,985.04
2022-09-15T08:20:03.368Z,985.05
2022-09-15T08:21:03.389Z,985.08
2022-09-15T08:22:03.329Z,985.09
2022-09-15T08:23:03.241Z,985.12
2022-09-15T08:24:03.352Z,985.12
2022-09-15T08:25:04.200Z,985.13
2022-09-15T08:26:03.287Z,985.14
2022-09-15T08:27:03.345Z,985.09
2022-09-15T08:28:03.224Z,985.08
2022-09-15T08:29:03.247Z,985.13
2022-09-15T08:30:03.252Z,985.04
2022-09-15T08:31:03.458Z,984.99
2022-09-15T08:32:03.175Z,985.08
2022-09-15T08:33:03.199Z,985.06
2022-09-15T08:34:04.089Z,984.98
2022-09-15T08:35:03.163Z,985.08
2022-09-15T08:36:04.283Z,985.12
2022-09-15T08:37:03.150Z,985.09
2022-09-15T08:38:03.163Z,985.10
2022-09-15T08:39:03.177Z,985.14
2022-09-15T08:40:03.203Z,985.14
2022-09-15T08:41:03.196Z,985.13
2022-09-15T08:42:03.066Z,985.05
2022-09-15T08:43:03.097Z,985.12
2022-09-15T08:44:03.096Z,985.11
2022-09-15T08:45:03.076Z,985.08
2022-09-15T08:46:03.271Z,985.11
2022-09-15T08:47:03.074Z,985.17
2022-09-15T08:48:03.050Z,985.19
2022-09-15T08:49:03.299Z,985.22
2022-09-15T08:50:04.127Z,985.28
2022-09-15T08:51:03.056Z,985.21
2022-09-15T08:52:02.998Z,985.20
2022-09-15T08:53:03.761Z,985.27
2022-09-15T08:54:02.992Z,985.30
2022-09-15T08:55:02.955Z,985.35
2022-09-15T08:56:04.633Z,985.28
2022-09-15T08:57:03.039Z,985.34
2022-09-15T08:58:02.958Z,985.36
2022-09-15T08:59:02.901Z,985.28
2022-09-15T09:00:03.766Z,985.36
2022-09-15T09:01:02.877Z,985.34
2022-09-15T09:02:03.006Z,985.31
2022-09-15T09:03:02.995Z,985.34
2022-09-15T09:04:02.887Z,985.31
2022-09-15T09:05:02.866Z,985.32
2022-09-15T09:06:02.869Z,985.34
2022-09-15T09:07:02.870Z,985.31
2022-09-15T09:08:02.858Z,985.34
2022-09-15T09:09:02.854Z,985.43
2022-09-15T09:10:02.824Z,985.43
2022-09-15T09:11:02.844Z,985.42
2022-09-15T09:12:02.781Z,985.38
2022-09-15T09:13:02.796Z,985.41
2022-09-15T09:14:02.776Z,985.45
2022-09-15T09:15:02.845Z,985.44
2022-09-15T09:16:02.848Z,985.45
2022-09-15T09:17:02.710Z,985.42
2022-09-15T09:18:02.900Z,985.46
2022-09-15T09:19:02.691Z,985.44
2022-09-15T09:20:02.735Z,985.44
2022-09-15T09:21:02.711Z,985.48
2022-09-15T09:22:02.744Z,985.54
2022-09-15T09:23:02.666Z,985.51
2022-09-15T09:24:02.731Z,985.51
2022-09-15T09:25:08.559Z,985.50
2022-09-15T09:26:08.625Z,985.48
2022-09-15T09:27:03.710Z,985.50
2022-09-15T09:28:02.642Z,985.47
2022-09-15T09:29:02.637Z,985.49
2022-09-15T09:30:03.037Z,985.52
2022-09-15T09:31:02.848Z,985.58
2022-09-15T09:32:02.666Z,985.54
2022-09-15T09:33:02.566Z,985.50
2022-09-15T09:34:02.541Z,985.53
2022-09-15T09:35:02.585Z,985.49
2022-09-15T09:36:02.601Z,985.48
2022-09-15T09:37:02.704Z,985.50
2022-09-15T09:38:02.535Z,985.50
2022-09-15T09:39:02.542Z,985.50
2022-09-15T09:40:02.670Z,985.46
2022-09-15T09:41:02.892Z,985.41
2022-09-15T09:42:02.529Z,985.37
2022-09-15T09:43:02.474Z,985.42
2022-09-15T09:44:02.653Z,985.43
2022-09-15T09:45:02.501Z,985.40
2022-09-15T09:46:02.737Z,985.42
2022-09-15T09:47:02.529Z,985.43
2022-09-15T09:48:02.527Z,985.38
2022-09-15T09:49:02.486Z,985.45
2022-09-15T09:50:02.456Z,985.41
2022-09-15T09:51:02.519Z,985.37
2022-09-15T09:52:02.399Z,985.36
2022-09-15T09:53:03.299Z,985.40
2022-09-15T09:54:02.357Z,985.35
2022-09-15T09:55:02.383Z,985.36
2022-09-15T09:56:02.446Z,985.35
2022-09-15T09:57:02.366Z,985.37
2022-09-15T09:58:02.418Z,985.39
2022-09-15T09:59:02.343Z,985.44
2022-09-15T10:00:02.391Z,985.34
2022-09-15T10:01:02.353Z,985.41
2022-09-15T10:02:02.641Z,985.35
2022-09-15T10:03:02.265Z,985.31
2022-09-15T10:04:02.264Z,985.37
2022-09-15T10:05:02.288Z,985.41
2022-09-15T10:06:02.373Z,985.38
2022-09-15T10:07:02.244Z,985.38
2022-09-15T10:08:02.341Z,985.39
2022-09-15T10:09:03.104Z,985.45
2022-09-15T10:10:02.230Z,985.45
2022-09-15T10:11:02.268Z,985.39
2022-09-15T10:12:02.217Z,985.33
2022-09-15T10:13:02.157Z,985.38
2022-09-15T10:14:03.287Z,985.41
2022-09-15T10:15:02.182Z,985.41
2022-09-15T10:16:03.698Z,985.38
2022-09-15T10:17:02.144Z,985.38
2022-09-15T10:18:02.293Z,985.41
2022-09-15T10:19:02.256Z,985.39
2022-09-15T10:20:02.170Z,985.40
2022-09-15T10:21:02.238Z,985.38
2022-09-15T10:22:02.168Z,985.43
2022-09-15T10:23:02.133Z,985.45
2022-09-15T10:24:02.106Z,985.44
2022-09-15T10:25:02.232Z,985.47
2022-09-15T10:26:02.325Z,985.49
2022-09-15T10:27:02.078Z,985.46
2022-09-15T10:28:02.088Z,985.46
2022-09-15T10:29:02.143Z,985.53
2022-09-15T10:30:02.072Z,985.44
2022-09-15T10:31:02.178Z,985.49
2022-09-15T10:32:02.108Z,985.39
2022-09-15T10:33:01.985Z,985.47
2022-09-15T10:34:01.966Z,985.40
2022-09-15T10:35:01.999Z,985.40
2022-09-15T10:36:01.949Z,985.49
2022-09-15T10:37:02.383Z,985.46
2022-09-15T10:38:01.975Z,985.47
2022-09-15T10:39:01.957Z,985.47
2022-09-15T10:40:01.959Z,985.49
2022-09-15T10:41:01.947Z,985.44
2022-09-15T10:42:01.965Z,985.46
2022-09-15T10:43:01.899Z,985.42
2022-09-15T10:44:01.937Z,985.45
2022-09-15T10:45:01.922Z,985.49
2022-09-15T10:46:01.956Z,985.49
2022-09-15T10:47:01.891Z,985.52
2022-09-15T10:48:01.923Z,985.57
2022-09-15T10:49:01.894Z,985.54
2022-09-15T10:50:01.835Z,985.58
2022-09-15T10:51:01.779Z,985.58
2022-09-15T10:52:01.839Z,985.53
2022-09-15T10:53:02.587Z,985.48
2022-09-15T10:54:01.766Z,985.53
2022-09-15T10:55:01.752Z,985.55
2022-09-15T10:56:01.758Z,985.58
2022-09-15T10:57:01.775Z,985.55
2022-09-15T10:58:02.784Z,985.53
2022-09-15T10:59:01.738Z,985.48
2022-09-15T11:00:01.788Z,985.48
2022-09-15T11:01:01.788Z,985.50
2022-09-15T11:02:02.003Z,985.47
2022-09-15T11:03:01.709Z,985.47
2022-09-15T11:04:01.679Z,985.49
2022-09-15T11:05:01.850Z,985.43
2022-09-15T11:06:01.670Z,985.45
2022-09-15T11:07:01.862Z,985.36
2022-09-15T11:08:01.643Z,985.39
2022-09-15T11:09:01.862Z,985.42
2022-09-15T11:10:01.637Z,985.44
2022-09-15T11:11:01.603Z,985.42
2022-09-15T11:12:01.806Z,985.40
2022-09-15T11:13:01.613Z,985.42
2022-09-15T11:14:01.697Z,985.34
2022-09-15T11:15:01.680Z,985.39
2022-09-15T11:16:01.615Z,985.40
2022-09-15T11:17:01.647Z,985.33
2022-09-15T11:18:01.548Z,985.33
2022-09-15T11:19:01.575Z,985.32
2022-09-15T11:20:01.524Z,985.35
2022-09-15T11:21:02.331Z,985.38
2022-09-15T11:22:01.599Z,985.35
2022-09-15T11:23:01.654Z,985.34
2022-09-15T11:24:01.608Z,985.38
2022-09-15T11:25:01.475Z,985.38
2022-09-15T11:26:01.499Z,985.38
2022-09-15T11:27:01.542Z,985.39
2022-09-15T11:28:02.297Z,985.40
2022-09-15T11:29:01.418Z,985.30
2022-09-15T11:30:02.054Z,985.31
2022-09-15T11:31:01.450Z,985.35
2022-09-15T11:33:01.425Z,985.29
2022-09-15T11:34:01.451Z,985.23
2022-09-15T11:35:02.041Z,985.35
2022-09-15T11:36:01.454Z,985.30
2022-09-15T11:37:01.538Z,985.39
2022-09-15T11:38:01.531Z,985.34
2022-09-15T11:39:01.453Z,985.30
2022-09-15T11:40:01.428Z,985.31
2022-09-15T11:41:01.557Z,985.30
2022-09-15T11:42:02.210Z,985.30
2022-09-15T11:43:01.244Z,985.26
2022-09-15T11:44:01.295Z,985.26
2022-09-15T11:45:01.296Z,985.30
2022-09-15T11:46:02.187Z,985.30
2022-09-15T11:47:01.453Z,985.23
2022-09-15T11:48:01.219Z,985.27
2022-09-15T11:49:01.855Z,985.30
2022-09-15T11:50:01.494Z,985.37
2022-09-15T11:51:01.399Z,985.34
2022-09-15T11:52:01.619Z,985.30
2022-09-15T11:53:01.306Z,985.31
2022-09-15T11:54:01.178Z,985.40
2022-09-15T11:55:01.234Z,985.35
2022-09-15T11:56:01.785Z,985.32
2022-09-15T11:57:01.230Z,985.43
2022-09-15T11:58:01.249Z,985.39
2022-09-15T11:59:01.176Z,985.37
2022-09-15T12:00:01.308Z,985.36
2022-09-15T12:01:01.141Z,985.35
2022-09-15T12:02:01.141Z,985.38
2022-09-15T12:03:01.139Z,985.40
2022-09-15T12:04:01.227Z,985.38
2022-09-15T12:05:01.966Z,985.46
2022-09-15T12:06:01.110Z,985.52
2022-09-15T12:07:01.252Z,985.51
2022-09-15T12:08:00.999Z,985.49
2022-09-15T12:09:01.020Z,985.46
2022-09-15T12:10:01.031Z,985.52
2022-09-15T12:11:01.198Z,985.45
2022-09-15T12:12:01.828Z,985.55
2022-09-15T12:13:01.085Z,985.58
2022-09-15T12:14:01.135Z,985.57
2022-09-15T12:15:00.977Z,985.53
2022-09-15T12:16:01.038Z,985.54
2022-09-15T12:17:01.001Z,985.63
2022-09-15T12:18:06.424Z,985.60
2022-09-15T12:19:01.990Z,985.62
2022-09-15T12:20:00.913Z,985.62
2022-09-15T12:21:01.098Z,985.58
2022-09-15T12:22:00.943Z,985.59
2022-09-15T12:23:00.952Z,985.65
2022-09-15T12:24:01.089Z,985.59
2022-09-15T12:25:01.410Z,985.57
2022-09-15T12:26:01.897Z,985.60
2022-09-15T12:27:00.931Z,985.64
2022-09-15T12:28:01.517Z,985.57
2022-09-15T12:29:00.926Z,985.57
2022-09-15T12:30:00.963Z,985.58
2022-09-15T12:31:00.856Z,985.64
2022-09-15T12:32:00.872Z,985.59
2022-09-15T12:33:01.882Z,985.61
2022-09-15T12:34:00.810Z,985.58
2022-09-15T12:35:00.800Z,985.57
2022-09-15T12:36:00.745Z,985.58
2022-09-15T12:38:00.804Z,985.65
2022-09-15T12:39:00.821Z,985.64
2022-09-15T12:40:00.785Z,985.62
2022-09-15T12:41:00.730Z,985.60
2022-09-15T12:42:00.655Z,985.66
2022-09-15T12:43:00.688Z,985.63
2022-09-15T12:44:00.714Z,985.54
2022-09-15T12:45:00.730Z,985.62
2022-09-15T12:46:00.814Z,985.60
2022-09-15T12:47:00.677Z,985.62
2022-09-15T12:48:00.667Z,985.65
2022-09-15T12:49:00.783Z,985.57
2022-09-15T12:50:00.604Z,985.65
2022-09-15T12:51:00.598Z,985.69
2022-09-15T12:52:01.198Z,985.71
2022-09-15T12:53:00.666Z,985.72
2022-09-15T12:54:00.542Z,985.74
2022-09-15T12:55:00.550Z,985.70
2022-09-15T12:56:00.619Z,985.75
2022-09-15T12:57:00.570Z,985.71
2022-09-15T12:58:00.540Z,985.76
2022-09-15T12:59:04.576Z,985.73
2022-09-15T13:00:01.551Z,985.79
2022-09-15T13:01:17.683Z,985.79
2022-09-15T13:02:02.527Z,985.85
2022-09-15T13:03:00.671Z,985.83
2022-09-15T13:04:00.480Z,985.79
2022-09-15T13:05:01.477Z,985.84
2022-09-15T13:06:00.464Z,985.81
2022-09-15T13:07:00.571Z,985.81
2022-09-15T13:08:00.368Z,985.86
2022-09-15T13:09:00.346Z,985.92
2022-09-15T13:10:00.420Z,985.90
2022-09-15T13:11:00.485Z,985.89
2022-09-15T13:12:00.446Z,985.96
2022-09-15T13:13:00.361Z,985.97
2022-09-15T13:14:00.394Z,986.02
2022-09-15T13:15:00.432Z,985.94
2022-09-15T13:16:00.395Z,985.96
2022-09-15T13:17:00.367Z,985.97
2022-09-15T13:18:00.405Z,985.91
2022-09-15T13:19:00.374Z,985.93
2022-09-15T13:20:00.276Z,985.97
2022-09-15T13:21:00.290Z,985.90
2022-09-15T13:22:00.395Z,985.94
2022-09-15T13:23:00.293Z,985.82
2022-09-15T13:24:00.334Z,985.84
2022-09-15T13:25:01.578Z,985.78
2022-09-15T13:26:01.314Z,985.80
2022-09-15T13:27:00.242Z,985.87
2022-09-15T13:28:00.528Z,985.84
2022-09-15T13:29:00.224Z,985.89
2022-09-15T13:30:00.211Z,985.86
2022-09-15T13:31:00.351Z,985.80
2022-09-15T13:32:00.197Z,985.80
2022-09-15T13:33:00.142Z,985.82
2022-09-15T13:35:08.303Z,985.78
2022-09-15T13:36:01.134Z,985.83
2022-09-15T13:38:06.892Z,985.76
2022-09-15T13:39:02.192Z,985.73
2022-09-15T13:40:00.266Z,985.79
2022-09-15T13:41:00.077Z,985.74
2022-09-15T13:42:00.174Z,985.74
2022-09-15T13:43:00.050Z,985.73
2022-09-15T13:44:00.144Z,985.73
2022-09-15T13:45:00.082Z,985.66
2022-09-15T13:46:00.099Z,985.69
2022-09-15T13:47:00.153Z,985.69
2022-09-15T13:48:00.099Z,985.63
2022-09-15T13:49:00.066Z,985.66
2022-09-15T13:50:00.014Z,985.61
2022-09-15T13:50:59.986Z,985.65
2022-09-15T13:52:00.035Z,985.60
2022-09-15T13:53:00.033Z,985.60
2022-09-15T13:54:00.728Z,985.58
2022-09-15T13:54:59.933Z,985.57
2022-09-15T13:56:00.076Z,985.59
2022-09-15T13:56:59.940Z,985.62
2022-09-15T13:59:13.716Z,985.64
2022-09-15T14:00:01.897Z,985.57
2022-09-15T14:00:59.959Z,985.55
2022-09-15T14:02:00.020Z,985.55
2022-09-15T14:02:59.846Z,985.57
2022-09-15T14:03:59.869Z,985.56
2022-09-15T14:04:59.885Z,985.52
2022-09-15T14:05:59.839Z,985.52
2022-09-15T14:07:01.090Z,985.52
2022-09-15T14:08:01.495Z,985.52
2022-09-15T14:08:59.796Z,985.44
2022-09-15T14:09:59.921Z,985.34
2022-09-15T14:10:59.789Z,985.45
2022-09-15T14:11:59.792Z,985.38
2022-09-15T14:12:59.781Z,985.41
2022-09-15T14:13:59.826Z,985.42
2022-09-15T14:14:59.749Z,985.42
2022-09-15T14:15:59.774Z,985.47
2022-09-15T14:16:59.931Z,985.43
2022-09-15T14:17:59.775Z,985.48
2022-09-15T14:18:59.708Z,985.46
2022-09-15T14:19:59.771Z,985.50
2022-09-15T14:20:59.934Z,985.56
2022-09-15T14:21:59.656Z,985.55
2022-09-15T14:22:59.672Z,985.44
2022-09-15T14:24:00.329Z,985.49
2022-09-15T14:24:59.682Z,985.50
2022-09-15T14:25:59.676Z,985.45
2022-09-15T14:26:59.676Z,985.47
2022-09-15T14:27:59.699Z,985.52
2022-09-15T14:28:59.554Z,985.56
2022-09-15T14:29:59.631Z,985.41
2022-09-15T14:30:59.670Z,985.40
2022-09-15T14:31:59.792Z,985.45
2022-09-15T14:33:00.651Z,985.45
2022-09-15T14:34:00.586Z,985.40
2022-09-15T14:35:00.137Z,985.43
2022-09-15T14:35:59.545Z,985.50
2022-09-15T14:36:59.629Z,985.45
2022-09-15T14:37:59.454Z,985.49
2022-09-15T14:38:59.491Z,985.47
2022-09-15T14:40:00.401Z,985.50
2022-09-15T14:40:59.533Z,985.50
2022-09-15T14:43:00.454Z,985.45
2022-09-15T14:43:59.452Z,985.51
2022-09-15T14:46:06.942Z,985.44
2022-09-15T14:47:01.442Z,985.54
2022-09-15T14:47:59.518Z,985.50
2022-09-15T14:48:59.527Z,985.53
2022-09-15T14:49:59.363Z,985.51
2022-09-15T14:50:59.408Z,985.58
2022-09-15T14:51:59.465Z,985.49
2022-09-15T14:52:59.330Z,985.44
2022-09-15T14:53:59.365Z,985.52
2022-09-15T14:54:59.317Z,985.58
2022-09-15T14:56:01.269Z,985.57
2022-09-15T14:56:59.371Z,985.60
2022-09-15T14:57:59.344Z,985.52
2022-09-15T14:58:59.287Z,985.58
2022-09-15T14:59:59.398Z,985.64
2022-09-15T15:00:59.477Z,985.53
2022-09-15T15:01:59.352Z,985.66
2022-09-15T15:02:59.295Z,985.59
2022-09-15T15:03:59.279Z,985.64
2022-09-15T15:04:59.330Z,985.60
2022-09-15T15:06:02.625Z,985.62
2022-09-15T15:06:59.196Z,985.55
2022-09-15T15:07:59.211Z,985.54
2022-09-15T15:08:59.194Z,985.56
2022-09-15T15:09:59.255Z,985.60
2022-09-15T15:10:59.129Z,985.53
2022-09-15T15:12:00.120Z,985.54
2022-09-15T15:12:59.109Z,985.59
2022-09-15T15:13:59.149Z,985.59
2022-09-15T15:14:59.160Z,985.55
2022-09-15T15:15:59.319Z,985.60
2022-09-15T15:16:59.426Z,985.58
2022-09-15T15:17:59.201Z,985.61
2022-09-15T15:18:59.181Z,985.62
2022-09-15T15:19:59.643Z,985.55